sensor_id;sensor_type;location;lat;lon;timestamp;pressure;altitude;pressure_sealevel;temperature;humidity
60019;BME280;45870;42.528;26.740;2023-03-07T00:00:10;99152.97;;;13.60;44.57
60019;BME280;45870;42.528;26.740;2023-03-07T00:02:37;99150.47;;;13.33;46.46
60019;BME280;45870;42.528;26.740;2023-03-07T00:05:03;99149.13;;;13.51;45.12
60019;BME280;45870;42.528;26.740;2023-03-07T00:07:29;99108.44;;;13.36;44.98
60019;BME280;45870;42.528;26.740;2023-03-07T00:09:56;99137.50;;;13.50;44.74
60019;BME280;45870;42.528;26.740;2023-03-07T00:12:22;99132.91;;;12.99;46.21
60019;BME280;45870;42.528;26.740;2023-03-07T00:14:48;99133.34;;;13.23;45.52
60019;BME280;45870;42.528;26.740;2023-03-07T00:17:13;99131.19;;;13.35;45.16
60019;BME280;45870;42.528;26.740;2023-03-07T00:19:41;99130.34;;;11.28;48.83
60019;BME280;45870;42.528;26.740;2023-03-07T00:22:08;99127.56;;;10.63;50.72
60019;BME280;45870;42.528;26.740;2023-03-07T00:24:33;99134.09;;;8.52;57.88
60019;BME280;45870;42.528;26.740;2023-03-07T00:26:59;99126.78;;;9.68;54.64
60019;BME280;45870;42.528;26.740;2023-03-07T00:29:25;99131.13;;;10.85;51.47
60019;BME280;45870;42.528;26.740;2023-03-07T00:31:50;99127.00;;;11.43;49.81
60019;BME280;45870;42.528;26.740;2023-03-07T00:34:16;98898.56;;;9.85;49.91
60019;BME280;45870;42.528;26.740;2023-03-07T00:36:42;99133.22;;;11.00;49.39
60019;BME280;45870;42.528;26.740;2023-03-07T00:39:07;99146.44;;;11.18;50.19
60019;BME280;45870;42.528;26.740;2023-03-07T00:41:33;99137.91;;;12.01;47.69
60019;BME280;45870;42.528;26.740;2023-03-07T00:43:59;99141.22;;;12.09;47.24
60019;BME280;45870;42.528;26.740;2023-03-07T00:46:25;99128.81;;;12.49;46.07
60019;BME280;45870;42.528;26.740;2023-03-07T00:48:51;99114.78;;;12.58;45.26
60019;BME280;45870;42.528;26.740;2023-03-07T00:51:18;99022.81;;;11.84;45.34
60019;BME280;45870;42.528;26.740;2023-03-07T00:53:44;99116.56;;;12.05;45.81
60019;BME280;45870;42.528;26.740;2023-03-07T00:58:39;99124.59;;;11.95;44.42
60019;BME280;45870;42.528;26.740;2023-03-07T01:01:06;99113.84;;;11.51;44.84
60019;BME280;45870;42.528;26.740;2023-03-07T01:03:33;99110.13;;;11.58;45.22
60019;BME280;45870;42.528;26.740;2023-03-07T01:06:03;99111.56;;;11.17;46.47
60019;BME280;45870;42.528;26.740;2023-03-07T01:08:30;99100.63;;;11.55;46.22
60019;BME280;45870;42.528;26.740;2023-03-07T01:11:01;99105.81;;;11.83;45.02
60019;BME280;45870;42.528;26.740;2023-03-07T01:13:27;99086.06;;;11.29;44.69
60019;BME280;45870;42.528;26.740;2023-03-07T01:15:53;99108.94;;;11.22;45.41
60019;BME280;45870;42.528;26.740;2023-03-07T01:18:19;99108.84;;;11.38;45.46
60019;BME280;45870;42.528;26.740;2023-03-07T01:20:44;99101.66;;;11.71;45.75
60019;BME280;45870;42.528;26.740;2023-03-07T01:23:10;99098.69;;;11.02;47.83
60019;BME280;45870;42.528;26.740;2023-03-07T01:25:40;99101.38;;;11.50;45.84
60019;BME280;45870;42.528;26.740;2023-03-07T01:28:09;99087.22;;;11.65;45.67
60019;BME280;45870;42.528;26.740;2023-03-07T01:30:37;99099.75;;;11.71;45.21
60019;BME280;45870;42.528;26.740;2023-03-07T01:33:02;99103.44;;;11.65;45.35
60019;BME280;45870;42.528;26.740;2023-03-07T01:35:28;99093.66;;;11.59;45.56
60019;BME280;45870;42.528;26.740;2023-03-07T01:37:54;99094.78;;;11.63;44.57
60019;BME280;45870;42.528;26.740;2023-03-07T01:40:22;99096.28;;;11.27;45.06
60019;BME280;45870;42.528;26.740;2023-03-07T01:42:48;99100.63;;;11.07;45.05
60019;BME280;45870;42.528;26.740;2023-03-07T01:47:40;99083.97;;;11.90;46.80
60019;BME280;45870;42.528;26.740;2023-03-07T01:50:11;99089.47;;;12.37;45.99
60019;BME280;45870;42.528;26.740;2023-03-07T01:52:45;99090.63;;;12.09;45.14
60019;BME280;45870;42.528;26.740;2023-03-07T01:55:18;99090.34;;;11.79;45.67
60019;BME280;45870;42.528;26.740;2023-03-07T01:57:48;99086.59;;;11.31;46.67
60019;BME280;45870;42.528;26.740;2023-03-07T02:00:18;99083.59;;;11.54;45.70
60019;BME280;45870;42.528;26.740;2023-03-07T02:02:58;99078.25;;;10.68;47.87
60019;BME280;45870;42.528;26.740;2023-03-07T02:05:33;99082.47;;;11.24;45.28
60019;BME280;45870;42.528;26.740;2023-03-07T02:08:02;99085.16;;;11.24;45.19
60019;BME280;45870;42.528;26.740;2023-03-07T02:10:30;99089.31;;;11.10;44.04
60019;BME280;45870;42.528;26.740;2023-03-07T02:12:57;99078.63;;;11.20;45.42
60019;BME280;45870;42.528;26.740;2023-03-07T02:15:23;99080.19;;;11.37;44.66
60019;BME280;45870;42.528;26.740;2023-03-07T02:17:50;99078.50;;;11.31;44.15
60019;BME280;45870;42.528;26.740;2023-03-07T02:20:52;99083.91;;;11.10;44.86
60019;BME280;45870;42.528;26.740;2023-03-07T02:23:36;99077.97;;;10.86;44.34
60019;BME280;45870;42.528;26.740;2023-03-07T02:28:47;99079.56;;;10.27;45.15
60019;BME280;45870;42.528;26.740;2023-03-07T02:31:13;99071.72;;;10.25;44.63
60019;BME280;45870;42.528;26.740;2023-03-07T02:33:39;98970.28;;;9.52;45.37
60019;BME280;45870;42.528;26.740;2023-03-07T02:36:08;99070.63;;;10.43;45.07
60019;BME280;45870;42.528;26.740;2023-03-07T02:38:37;99077.19;;;10.69;44.88
60019;BME280;45870;42.528;26.740;2023-03-07T02:41:05;99077.66;;;10.82;44.48
60019;BME280;45870;42.528;26.740;2023-03-07T02:43:32;99065.91;;;10.93;44.15
60019;BME280;45870;42.528;26.740;2023-03-07T02:45:57;99069.22;;;10.57;44.67
60019;BME280;45870;42.528;26.740;2023-03-07T02:48:23;99067.59;;;10.39;44.87
60019;BME280;45870;42.528;26.740;2023-03-07T02:50:49;99076.13;;;10.31;45.65
60019;BME280;45870;42.528;26.740;2023-03-07T02:53:15;99068.78;;;10.27;46.44
60019;BME280;45870;42.528;26.740;2023-03-07T02:55:41;99065.25;;;10.26;45.22
60019;BME280;45870;42.528;26.740;2023-03-07T02:58:07;99012.56;;;9.85;45.52
60019;BME280;45870;42.528;26.740;2023-03-07T03:00:32;99062.22;;;9.89;45.34
60019;BME280;45870;42.528;26.740;2023-03-07T03:03:00;99048.63;;;9.68;45.62
60019;BME280;45870;42.528;26.740;2023-03-07T03:05:26;99054.38;;;10.04;45.25
60019;BME280;45870;42.528;26.740;2023-03-07T03:07:52;99058.28;;;9.97;44.53
60019;BME280;45870;42.528;26.740;2023-03-07T03:10:17;99053.00;;;10.02;44.64
60019;BME280;45870;42.528;26.740;2023-03-07T03:12:43;99054.88;;;10.18;45.33
60019;BME280;45870;42.528;26.740;2023-03-07T03:15:10;98997.38;;;9.46;45.29
60019;BME280;45870;42.528;26.740;2023-03-07T03:17:35;99051.75;;;9.76;45.17
60019;BME280;45870;42.528;26.740;2023-03-07T03:20:03;99055.66;;;9.85;45.27
60019;BME280;45870;42.528;26.740;2023-03-07T03:22:33;98964.06;;;9.35;45.27
60019;BME280;45870;42.528;26.740;2023-03-07T03:24:58;99057.91;;;9.88;44.92
60019;BME280;45870;42.528;26.740;2023-03-07T03:27:24;99054.72;;;9.46;46.36
60019;BME280;45870;42.528;26.740;2023-03-07T03:29:53;99076.03;;;9.31;46.75
60019;BME280;45870;42.528;26.740;2023-03-07T03:32:18;99052.19;;;9.40;45.19
60019;BME280;45870;42.528;26.740;2023-03-07T03:34:44;99051.50;;;9.16;46.72
60019;BME280;45870;42.528;26.740;2023-03-07T03:37:10;99053.34;;;9.44;46.45
60019;BME280;45870;42.528;26.740;2023-03-07T03:39:35;98985.28;;;9.32;45.42
60019;BME280;45870;42.528;26.740;2023-03-07T03:42:02;99052.16;;;9.68;44.02
60019;BME280;45870;42.528;26.740;2023-03-07T03:44:28;98987.16;;;9.31;45.62
60019;BME280;45870;42.528;26.740;2023-03-07T03:46:54;99048.19;;;9.87;45.17
60019;BME280;45870;42.528;26.740;2023-03-07T03:49:20;98988.53;;;9.50;45.16
60019;BME280;45870;42.528;26.740;2023-03-07T03:51:45;99050.44;;;9.79;45.28
60019;BME280;45870;42.528;26.740;2023-03-07T03:54:11;99047.53;;;9.64;44.92
60019;BME280;45870;42.528;26.740;2023-03-07T03:56:36;99048.72;;;9.56;45.15
60019;BME280;45870;42.528;26.740;2023-03-07T03:59:03;99030.16;;;9.43;44.84
60019;BME280;45870;42.528;26.740;2023-03-07T04:01:29;99052.47;;;9.38;45.24
60019;BME280;45870;42.528;26.740;2023-03-07T04:03:55;99048.50;;;9.91;45.53
60019;BME280;45870;42.528;26.740;2023-03-07T04:06:29;99046.69;;;9.80;45.54
60019;BME280;45870;42.528;26.740;2023-03-07T04:08:55;99037.72;;;9.91;45.41
60019;BME280;45870;42.528;26.740;2023-03-07T04:11:22;99040.97;;;9.76;45.12
60019;BME280;45870;42.528;26.740;2023-03-07T04:13:49;99005.03;;;9.37;44.40
60019;BME280;45870;42.528;26.740;2023-03-07T04:16:15;99055.72;;;9.12;46.13
60019;BME280;45870;42.528;26.740;2023-03-07T04:18:41;99035.66;;;9.48;46.00
60019;BME280;45870;42.528;26.740;2023-03-07T04:21:07;99051.53;;;9.94;44.85
60019;BME280;45870;42.528;26.740;2023-03-07T04:23:35;99047.94;;;10.06;45.45
60019;BME280;45870;42.528;26.740;2023-03-07T04:26:03;99056.97;;;9.99;45.45
60019;BME280;45870;42.528;26.740;2023-03-07T04:28:33;99058.22;;;9.92;44.97
60019;BME280;45870;42.528;26.740;2023-03-07T04:31:13;99056.34;;;9.92;45.23
60019;BME280;45870;42.528;26.740;2023-03-07T04:33:40;99056.59;;;10.08;45.21
60019;BME280;45870;42.528;26.740;2023-03-07T04:36:06;99058.44;;;10.07;45.45
60019;BME280;45870;42.528;26.740;2023-03-07T04:38:31;99057.06;;;10.04;45.42
60019;BME280;45870;42.528;26.740;2023-03-07T04:40:57;99056.81;;;9.89;44.33
60019;BME280;45870;42.528;26.740;2023-03-07T04:43:23;99055.28;;;9.77;44.38
60019;BME280;45870;42.528;26.740;2023-03-07T04:45:49;99015.28;;;9.24;45.48
60019;BME280;45870;42.528;26.740;2023-03-07T04:48:16;99060.56;;;9.55;45.59
60019;BME280;45870;42.528;26.740;2023-03-07T04:50:42;99058.13;;;9.70;44.10
60019;BME280;45870;42.528;26.740;2023-03-07T04:53:08;99055.72;;;9.40;45.51
60019;BME280;45870;42.528;26.740;2023-03-07T04:55:35;99046.84;;;9.57;44.75
60019;BME280;45870;42.528;26.740;2023-03-07T04:58:01;99047.75;;;9.79;45.47
60019;BME280;45870;42.528;26.740;2023-03-07T05:00:26;99009.03;;;9.68;45.31
60019;BME280;45870;42.528;26.740;2023-03-07T05:02:56;99058.31;;;10.30;44.86
60019;BME280;45870;42.528;26.740;2023-03-07T05:05:22;99063.69;;;10.14;45.24
60019;BME280;45870;42.528;26.740;2023-03-07T05:07:48;98971.00;;;9.65;44.59
60019;BME280;45870;42.528;26.740;2023-03-07T05:10:13;99042.53;;;10.06;44.56
60019;BME280;45870;42.528;26.740;2023-03-07T05:12:39;99053.72;;;9.97;44.77
60019;BME280;45870;42.528;26.740;2023-03-07T05:15:05;99059.28;;;10.24;44.51
60019;BME280;45870;42.528;26.740;2023-03-07T05:17:31;99057.34;;;10.20;44.61
60019;BME280;45870;42.528;26.740;2023-03-07T05:19:56;99063.06;;;10.23;44.20
60019;BME280;45870;42.528;26.740;2023-03-07T05:22:22;99065.16;;;10.38;44.70
60019;BME280;45870;42.528;26.740;2023-03-07T05:24:48;99074.06;;;10.77;44.29
60019;BME280;45870;42.528;26.740;2023-03-07T05:27:14;99017.00;;;10.68;44.65
60019;BME280;45870;42.528;26.740;2023-03-07T05:29:40;99079.44;;;11.20;45.29
60019;BME280;45870;42.528;26.740;2023-03-07T05:32:06;99077.53;;;11.69;44.73
60019;BME280;45870;42.528;26.740;2023-03-07T05:34:32;99077.00;;;12.31;44.74
60019;BME280;45870;42.528;26.740;2023-03-07T05:36:58;99075.81;;;12.59;44.80
60019;BME280;45870;42.528;26.740;2023-03-07T05:39:24;99088.53;;;13.05;45.55
60019;BME280;45870;42.528;26.740;2023-03-07T05:41:51;99085.22;;;12.93;44.94
60019;BME280;45870;42.528;26.740;2023-03-07T05:44:18;99079.22;;;13.53;45.18
60019;BME280;45870;42.528;26.740;2023-03-07T05:46:44;99038.56;;;13.93;42.99
60019;BME280;45870;42.528;26.740;2023-03-07T05:49:09;99083.50;;;14.85;42.70
60019;BME280;45870;42.528;26.740;2023-03-07T05:51:35;99088.13;;;14.95;42.12
60019;BME280;45870;42.528;26.740;2023-03-07T05:54:01;99079.19;;;15.92;41.39
60019;BME280;45870;42.528;26.740;2023-03-07T05:56:29;99083.78;;;16.55;40.64
60019;BME280;45870;42.528;26.740;2023-03-07T05:58:55;99081.84;;;17.31;39.29
60019;BME280;45870;42.528;26.740;2023-03-07T06:01:20;99084.66;;;17.69;37.88
60019;BME280;45870;42.528;26.740;2023-03-07T06:03:46;99096.03;;;14.71;42.16
60019;BME280;45870;42.528;26.740;2023-03-07T06:06:12;99093.94;;;14.18;43.43
60019;BME280;45870;42.528;26.740;2023-03-07T06:08:38;99088.22;;;18.02;36.44
60019;BME280;45870;42.528;26.740;2023-03-07T06:11:04;99087.63;;;18.56;34.84
60019;BME280;45870;42.528;26.740;2023-03-07T06:13:30;99095.94;;;19.73;35.00
60019;BME280;45870;42.528;26.740;2023-03-07T06:15:56;99098.16;;;19.71;33.65
60019;BME280;45870;42.528;26.740;2023-03-07T06:18:23;99096.59;;;19.29;34.77
60019;BME280;45870;42.528;26.740;2023-03-07T06:21:01;99100.94;;;20.29;33.00
60019;BME280;45870;42.528;26.740;2023-03-07T06:23:30;99098.84;;;18.22;35.18
60019;BME280;45870;42.528;26.740;2023-03-07T06:25:56;99095.19;;;19.05;35.59
60019;BME280;45870;42.528;26.740;2023-03-07T06:28:23;99100.25;;;20.10;33.48
60019;BME280;45870;42.528;26.740;2023-03-07T06:30:49;99087.09;;;19.76;34.50
60019;BME280;45870;42.528;26.740;2023-03-07T06:33:15;99054.47;;;19.03;35.88
60019;BME280;45870;42.528;26.740;2023-03-07T06:35:42;99095.34;;;21.35;32.27
60019;BME280;45870;42.528;26.740;2023-03-07T06:38:08;99095.03;;;17.67;38.10
60019;BME280;45870;42.528;26.740;2023-03-07T06:40:34;99101.19;;;14.83;45.66
60019;BME280;45870;42.528;26.740;2023-03-07T06:43:00;99107.59;;;12.78;47.89
60019;BME280;45870;42.528;26.740;2023-03-07T06:45:26;99114.47;;;11.59;50.59
60019;BME280;45870;42.528;26.740;2023-03-07T06:47:52;99101.66;;;13.38;45.80
60019;BME280;45870;42.528;26.740;2023-03-07T06:50:18;99095.53;;;13.98;46.37
60019;BME280;45870;42.528;26.740;2023-03-07T06:52:43;99101.84;;;13.17;46.68
60019;BME280;45870;42.528;26.740;2023-03-07T06:55:09;99098.00;;;14.10;45.62
60019;BME280;45870;42.528;26.740;2023-03-07T06:57:35;99097.53;;;17.44;37.92
60019;BME280;45870;42.528;26.740;2023-03-07T07:00:03;99104.06;;;18.69;35.14
60019;BME280;45870;42.528;26.740;2023-03-07T07:02:30;99101.47;;;16.62;38.72
60019;BME280;45870;42.528;26.740;2023-03-07T07:04:56;99108.22;;;14.94;43.49
60019;BME280;45870;42.528;26.740;2023-03-07T07:07:23;99109.69;;;14.56;44.60
60019;BME280;45870;42.528;26.740;2023-03-07T07:09:50;99109.41;;;14.37;44.94
60019;BME280;45870;42.528;26.740;2023-03-07T07:12:16;99118.09;;;14.34;44.62
60019;BME280;45870;42.528;26.740;2023-03-07T07:14:42;99115.66;;;16.88;39.99
60019;BME280;45870;42.528;26.740;2023-03-07T07:17:08;99112.44;;;17.52;37.90
60019;BME280;45870;42.528;26.740;2023-03-07T07:19:34;99123.38;;;16.13;41.30
60019;BME280;45870;42.528;26.740;2023-03-07T07:21:59;99114.56;;;14.04;46.57
60019;BME280;45870;42.528;26.740;2023-03-07T07:24:25;99116.44;;;14.59;45.90
60019;BME280;45870;42.528;26.740;2023-03-07T07:26:51;99112.91;;;17.78;38.79
60019;BME280;45870;42.528;26.740;2023-03-07T07:29:17;99113.69;;;17.60;37.73
60019;BME280;45870;42.528;26.740;2023-03-07T07:31:42;99115.13;;;19.05;36.15
60019;BME280;45870;42.528;26.740;2023-03-07T07:34:08;99100.13;;;19.30;35.63
60019;BME280;45870;42.528;26.740;2023-03-07T07:36:34;99101.72;;;22.13;31.04
60019;BME280;45870;42.528;26.740;2023-03-07T07:39:04;99109.72;;;18.08;37.37
60019;BME280;45870;42.528;26.740;2023-03-07T07:41:31;99111.28;;;17.95;39.11
60019;BME280;45870;42.528;26.740;2023-03-07T07:43:56;99096.94;;;20.35;34.85
60019;BME280;45870;42.528;26.740;2023-03-07T07:46:22;99100.53;;;19.37;37.48
60019;BME280;45870;42.528;26.740;2023-03-07T07:48:48;99113.28;;;20.05;36.23
60019;BME280;45870;42.528;26.740;2023-03-07T07:51:14;99106.94;;;19.05;37.77
60019;BME280;45870;42.528;26.740;2023-03-07T07:53:39;99112.06;;;19.75;36.65
60019;BME280;45870;42.528;26.740;2023-03-07T07:56:05;99068.13;;;20.02;35.91
60019;BME280;45870;42.528;26.740;2023-03-07T07:58:31;99103.56;;;19.99;37.06
60019;BME280;45870;42.528;26.740;2023-03-07T08:00:57;99072.34;;;20.83;34.62
60019;BME280;45870;42.528;26.740;2023-03-07T08:03:23;99104.94;;;21.64;33.63
60019;BME280;45870;42.528;26.740;2023-03-07T08:05:48;99096.25;;;21.96;33.30
60019;BME280;45870;42.528;26.740;2023-03-07T08:08:16;99096.38;;;19.53;37.80
60019;BME280;45870;42.528;26.740;2023-03-07T08:10:44;99105.38;;;20.25;37.10
60019;BME280;45870;42.528;26.740;2023-03-07T08:13:12;99095.34;;;24.19;30.32
60019;BME280;45870;42.528;26.740;2023-03-07T08:15:39;99092.31;;;24.12;30.24
60019;BME280;45870;42.528;26.740;2023-03-07T08:18:05;99104.44;;;22.56;32.77
60019;BME280;45870;42.528;26.740;2023-03-07T08:20:31;99095.63;;;20.86;36.62
60019;BME280;45870;42.528;26.740;2023-03-07T08:22:57;99081.97;;;21.42;35.27
60019;BME280;45870;42.528;26.740;2023-03-07T08:25:23;99092.44;;;18.77;41.39
60019;BME280;45870;42.528;26.740;2023-03-07T08:27:51;99085.66;;;19.16;40.60
60019;BME280;45870;42.528;26.740;2023-03-07T08:30:24;98991.72;;;17.60;43.03
60019;BME280;45870;42.528;26.740;2023-03-07T08:32:52;98971.81;;;17.41;43.38
60019;BME280;45870;42.528;26.740;2023-03-07T08:35:19;99087.22;;;17.79;43.74
60019;BME280;45870;42.528;26.740;2023-03-07T08:37:45;99093.97;;;19.52;40.49
60019;BME280;45870;42.528;26.740;2023-03-07T08:40:13;99080.53;;;18.55;43.39
60019;BME280;45870;42.528;26.740;2023-03-07T08:42:40;99072.06;;;19.11;42.03
60019;BME280;45870;42.528;26.740;2023-03-07T08:45:12;98987.09;;;18.80;41.28
60019;BME280;45870;42.528;26.740;2023-03-07T08:47:37;99062.66;;;20.47;38.82
60019;BME280;45870;42.528;26.740;2023-03-07T08:50:04;99067.16;;;20.42;40.28
60019;BME280;45870;42.528;26.740;2023-03-07T08:52:30;99062.34;;;19.05;42.91
60019;BME280;45870;42.528;26.740;2023-03-07T08:54:55;99056.25;;;19.49;42.00
60019;BME280;45870;42.528;26.740;2023-03-07T08:57:21;99031.41;;;18.50;43.06
60019;BME280;45870;42.528;26.740;2023-03-07T08:59:47;99054.00;;;19.86;40.71
60019;BME280;45870;42.528;26.740;2023-03-07T09:02:13;99009.72;;;20.77;39.06
60019;BME280;45870;42.528;26.740;2023-03-07T09:04:39;99030.63;;;19.04;40.68
60019;BME280;45870;42.528;26.740;2023-03-07T09:07:04;99033.94;;;21.14;37.44
60019;BME280;45870;42.528;26.740;2023-03-07T09:09:30;99035.66;;;22.65;35.02
60019;BME280;45870;42.528;26.740;2023-03-07T09:11:56;99033.81;;;22.22;35.35
60019;BME280;45870;42.528;26.740;2023-03-07T09:14:22;99034.59;;;20.80;37.95
60019;BME280;45870;42.528;26.740;2023-03-07T09:16:48;99033.66;;;20.85;37.41
60019;BME280;45870;42.528;26.740;2023-03-07T09:19:14;99028.19;;;20.01;38.48
60019;BME280;45870;42.528;26.740;2023-03-07T09:21:40;99033.66;;;21.59;36.49
60019;BME280;45870;42.528;26.740;2023-03-07T09:24:06;99032.63;;;20.41;37.60
60019;BME280;45870;42.528;26.740;2023-03-07T09:26:32;99024.38;;;20.64;36.71
60019;BME280;45870;42.528;26.740;2023-03-07T09:28:59;99032.38;;;18.86;40.71
60019;BME280;45870;42.528;26.740;2023-03-07T09:31:25;99029.22;;;19.69;39.25
60019;BME280;45870;42.528;26.740;2023-03-07T09:33:51;99030.84;;;21.16;37.25
60019;BME280;45870;42.528;26.740;2023-03-07T09:36:17;99033.53;;;19.84;39.04
60019;BME280;45870;42.528;26.740;2023-03-07T09:38:45;99019.13;;;20.23;38.12
60019;BME280;45870;42.528;26.740;2023-03-07T09:44:20;99033.66;;;21.41;36.60
60019;BME280;45870;42.528;26.740;2023-03-07T09:47:14;99025.81;;;18.41;42.06
60019;BME280;45870;42.528;26.740;2023-03-07T09:49:49;99021.88;;;20.01;37.05
60019;BME280;45870;42.528;26.740;2023-03-07T09:52:19;99029.03;;;21.03;36.06
60019;BME280;45870;42.528;26.740;2023-03-07T09:54:52;99009.00;;;20.54;36.85
60019;BME280;45870;42.528;26.740;2023-03-07T09:57:24;99025.13;;;21.95;34.39
60019;BME280;45870;42.528;26.740;2023-03-07T10:02:35;99016.34;;;21.24;36.37
60019;BME280;45870;42.528;26.740;2023-03-07T10:07:47;99004.63;;;20.53;36.25
60019;BME280;45870;42.528;26.740;2023-03-07T10:10:22;99017.00;;;20.20;37.52
60019;BME280;45870;42.528;26.740;2023-03-07T10:13:07;99009.44;;;20.78;36.37
60019;BME280;45870;42.528;26.740;2023-03-07T10:18:20;98989.91;;;21.62;35.25
60019;BME280;45870;42.528;26.740;2023-03-07T10:20:51;99001.94;;;21.10;36.28
60019;BME280;45870;42.528;26.740;2023-03-07T10:23:27;99004.41;;;21.54;34.83
60019;BME280;45870;42.528;26.740;2023-03-07T10:26:11;98990.06;;;20.83;36.22
60019;BME280;45870;42.528;26.740;2023-03-07T10:28:43;98992.56;;;20.54;36.69
60019;BME280;45870;42.528;26.740;2023-03-07T10:31:16;98986.00;;;22.53;33.49
60019;BME280;45870;42.528;26.740;2023-03-07T10:33:46;98979.19;;;22.12;34.95
60019;BME280;45870;42.528;26.740;2023-03-07T10:36:40;98977.91;;;21.15;35.86
60019;BME280;45870;42.528;26.740;2023-03-07T10:42:17;98970.81;;;21.83;34.77
60019;BME280;45870;42.528;26.740;2023-03-07T10:44:44;98966.38;;;23.51;32.27
60019;BME280;45870;42.528;26.740;2023-03-07T10:47:21;98905.66;;;22.09;34.09
60019;BME280;45870;42.528;26.740;2023-03-07T10:49:49;98958.66;;;22.56;33.88
60019;BME280;45870;42.528;26.740;2023-03-07T10:52:34;98949.63;;;22.01;35.12
60019;BME280;45870;42.528;26.740;2023-03-07T10:55:29;98940.03;;;23.41;31.69
60019;BME280;45870;42.528;26.740;2023-03-07T11:00:39;98939.97;;;21.52;36.75
60019;BME280;45870;42.528;26.740;2023-03-07T11:03:32;98921.09;;;21.24;36.71
60019;BME280;45870;42.528;26.740;2023-03-07T11:06:03;98929.00;;;20.21;37.85
60019;BME280;45870;42.528;26.740;2023-03-07T11:08:33;98924.63;;;22.31;34.13
60019;BME280;45870;42.528;26.740;2023-03-07T11:11:01;98914.91;;;21.79;35.82
60019;BME280;45870;42.528;26.740;2023-03-07T11:13:27;98916.81;;;24.28;31.68
60019;BME280;45870;42.528;26.740;2023-03-07T11:16:17;98907.13;;;23.03;33.77
60019;BME280;45870;42.528;26.740;2023-03-07T11:18:44;98908.25;;;21.97;34.41
60019;BME280;45870;42.528;26.740;2023-03-07T11:21:32;98910.78;;;22.86;32.39
60019;BME280;45870;42.528;26.740;2023-03-07T11:24:25;98897.63;;;22.33;33.82
60019;BME280;45870;42.528;26.740;2023-03-07T11:26:54;98900.56;;;21.56;34.02
60019;BME280;45870;42.528;26.740;2023-03-07T11:29:20;98894.22;;;22.36;32.80
60019;BME280;45870;42.528;26.740;2023-03-07T11:34:52;98895.56;;;21.32;36.02
60019;BME280;45870;42.528;26.740;2023-03-07T11:37:37;98891.63;;;21.94;34.50
60019;BME280;45870;42.528;26.740;2023-03-07T11:43:13;98881.31;;;24.39;30.96
60019;BME280;45870;42.528;26.740;2023-03-07T11:45:56;98879.66;;;25.39;28.89
60019;BME280;45870;42.528;26.740;2023-03-07T11:48:52;98871.94;;;25.04;28.96
60019;BME280;45870;42.528;26.740;2023-03-07T11:51:42;98864.16;;;24.21;30.77
60019;BME280;45870;42.528;26.740;2023-03-07T11:56:46;98854.75;;;24.47;29.33
60019;BME280;45870;42.528;26.740;2023-03-07T12:04:25;98843.69;;;24.71;29.39
60019;BME280;45870;42.528;26.740;2023-03-07T12:18:08;98826.25;;;24.18;27.63
60019;BME280;45870;42.528;26.740;2023-03-07T12:23:36;98833.78;;;24.82;26.83
60019;BME280;45870;42.528;26.740;2023-03-07T12:31:33;98810.00;;;23.93;27.37
60019;BME280;45870;42.528;26.740;2023-03-07T12:34:10;98821.78;;;24.14;27.32
60019;BME280;45870;42.528;26.740;2023-03-07T12:39:45;98812.28;;;22.51;28.75
60019;BME280;45870;42.528;26.740;2023-03-07T12:42:34;98808.78;;;24.38;27.40
60019;BME280;45870;42.528;26.740;2023-03-07T12:45:17;98752.94;;;23.24;27.35
60019;BME280;45870;42.528;26.740;2023-03-07T12:53:39;98819.97;;;23.73;28.50
60019;BME280;45870;42.528;26.740;2023-03-07T12:56:09;98813.75;;;24.45;27.59
60019;BME280;45870;42.528;26.740;2023-03-07T13:01:33;98811.75;;;25.38;25.77
60019;BME280;45870;42.528;26.740;2023-03-07T13:04:10;98810.94;;;26.78;23.31
60019;BME280;45870;42.528;26.740;2023-03-07T13:06:39;98809.81;;;27.17;23.28
60019;BME280;45870;42.528;26.740;2023-03-07T13:09:11;98809.59;;;24.39;29.25
60019;BME280;45870;42.528;26.740;2023-03-07T13:14:37;98803.59;;;23.44;29.70
60019;BME280;45870;42.528;26.740;2023-03-07T13:17:03;98807.94;;;23.12;29.90
60019;BME280;45870;42.528;26.740;2023-03-07T13:24:41;98799.66;;;25.14;27.29
60019;BME280;45870;42.528;26.740;2023-03-07T13:27:17;98762.50;;;25.12;26.91
60019;BME280;45870;42.528;26.740;2023-03-07T13:42:55;98784.88;;;27.78;22.10
60019;BME280;45870;42.528;26.740;2023-03-07T13:45:50;98783.16;;;29.65;19.40
60019;BME280;45870;42.528;26.740;2023-03-07T13:55:46;98728.13;;;24.29;24.67
60019;BME280;45870;42.528;26.740;2023-03-07T13:58:25;98778.06;;;25.75;23.92
60019;BME280;45870;42.528;26.740;2023-03-07T14:01:02;98786.19;;;25.13;24.50
60019;BME280;45870;42.528;26.740;2023-03-07T14:03:32;98782.91;;;26.45;23.31
60019;BME280;45870;42.528;26.740;2023-03-07T14:06:10;98776.53;;;26.09;23.40
60019;BME280;45870;42.528;26.740;2023-03-07T14:08:38;98779.44;;;27.02;22.81
60019;BME280;45870;42.528;26.740;2023-03-07T14:11:05;98769.59;;;28.11;21.55
60019;BME280;45870;42.528;26.740;2023-03-07T14:27:12;98780.66;;;25.13;24.00
60019;BME280;45870;42.528;26.740;2023-03-07T14:29:51;98754.53;;;26.48;22.51
60019;BME280;45870;42.528;26.740;2023-03-07T14:32:22;98776.50;;;24.91;24.26
60019;BME280;45870;42.528;26.740;2023-03-07T14:34:48;98776.69;;;23.73;25.74
60019;BME280;45870;42.528;26.740;2023-03-07T14:37:18;98768.50;;;23.20;26.50
60019;BME280;45870;42.528;26.740;2023-03-07T14:45:42;98768.88;;;23.75;25.97
60019;BME280;45870;42.528;26.740;2023-03-07T14:50:44;98760.97;;;23.86;26.28
60019;BME280;45870;42.528;26.740;2023-03-07T14:53:19;98760.75;;;24.40;25.26
60019;BME280;45870;42.528;26.740;2023-03-07T14:55:46;98774.13;;;26.23;23.28
60019;BME280;45870;42.528;26.740;2023-03-07T14:58:19;98775.94;;;26.51;22.87
60019;BME280;45870;42.528;26.740;2023-03-07T15:00:45;98769.59;;;24.97;25.02